Copper Queen, Arizona
Current Conditions -  °F | °C
As of 11:56 AM on Tuesday 27 Jan 2015 (Local Time) from KDUG Reporting Station
Broken Clouds Broken Clouds  
Wind Chill: 66°   Ceiling: 4400
Heat Index: 66°   Visibility: 10mi
Dew Point: 37°   Wind: 6mph
Humidity: 34%   Direction: 160°SSE
Pressure: 30.28"   Gusts: NA
Location:  31.4799°N, 109.96°W
Report Text: KDUG 271856Z AUTO 16005KT 10SM BKN044 19/03 A3028 RMK AO2 SLP212 T01890028
Loading
Personal Weather Stations






























Interactive Weather Map New forecast layout! Learn more

10-Day Weather Forecast

Advertisements
Track Severe Weather on mobile